Tuesday, January 17, 2017, 3:54 AM EST

KUNV, State College, University Park Airport

Location: State College, PA, United States Lat: 40.85
Local Time: 3:54 AM EST ( 8:54 GMT) Lon: -77.85
Time Zone: US/Eastern Elev: 1240 ft

Show me the last for .
Show Decoded

2017-01-17 03:35 METAR KUNV 170835Z AUTO 00000KT 7SM OVC007 00/M01 A3018 RMK AO2 P0002 T00001013
                 =
2017-01-17 03:15 METAR KUNV 170815Z AUTO 36003KT 7SM OVC007 00/M01 A3018 RMK AO2 P0001 T00001012
                 =
2017-01-17 02:55 METAR KUNV 170755Z AUTO 00000KT 7SM UP OVC007 00/M01 A3019 RMK AO2 T00001010 =
2017-01-17 02:35 METAR KUNV 170735Z AUTO 00000KT 2SM RA OVC007 00/M01 A3019 RMK AO2 T00001014 =
2017-01-17 02:15 METAR KUNV 170715Z AUTO 00000KT 10SM OVC007 00/M01 A3020 RMK AO2 T00011014 =
2017-01-17 01:55 METAR KUNV 170655Z AUTO 00000KT 10SM OVC007 00/M01 A3019 RMK AO2 T00011015 =
2017-01-17 01:35 METAR KUNV 170635Z AUTO 00000KT 10SM OVC007 00/M01 A3020 RMK AO2 T00021015 =
2017-01-17 01:15 METAR KUNV 170615Z AUTO 00000KT 10SM OVC007 00/M01 A3021 RMK AO2 T00021015 =
2017-01-17 00:55 METAR KUNV 170555Z AUTO 00000KT 10SM OVC007 00/M02 A3021 RMK AO2 T00021016 10009
                 20002 =
2017-01-17 00:35 METAR KUNV 170535Z AUTO 00000KT 10SM BKN009 OVC012 00/M01 A3021 RMK AO2
                 T00031014 =
2017-01-17 00:15 METAR KUNV 170515Z AUTO 00000KT 10SM BKN009 OVC012 01/M02 A3021 RMK AO2
                 T00051016 =
2017-01-16 23:55 METAR KUNV 170455Z AUTO 28003KT 10SM BKN009 OVC014 01/M02 A3022 RMK AO2
                 T00051016 =
2017-01-16 23:35 METAR KUNV 170435Z AUTO 00000KT 10SM BKN009 OVC014 01/M01 A3023 RMK AO2
                 T00051015 =
2017-01-16 23:15 METAR KUNV 170415Z AUTO 00000KT 10SM BKN009 OVC014 01/M01 A3023 RMK AO2 LTG DSNT
                 SW T00051015 =
2017-01-16 22:55 METAR KUNV 170355Z AUTO 00000KT 10SM OVC011 01/M01 A3024 RMK AO2 LTG DSNT SW
                 T00051015 400191085 =
2017-01-16 22:35 METAR KUNV 170335Z AUTO 00000KT 10SM OVC011 01/M01 A3024 RMK AO2 T00051015 =
2017-01-16 22:15 METAR KUNV 170315Z AUTO 00000KT 10SM BKN011 OVC022 01/M01 A3025 RMK AO2
                 T00051013 =
2017-01-16 20:53 METAR KUNV 170153Z 00000KT 10SM OVC028 01/M02 A3027 =
2017-01-16 20:39 METAR KUNV 170139Z 00000KT 10SM OVC028 01/M02 A3027 =
2017-01-16 19:53 METAR KUNV 170053Z 26004KT 10SM OVC034 01/M02 A3029 =
2017-01-16 18:53 METAR KUNV 162353Z 23003KT 10SM -DZ SCT033 BKN040 OVC055 01/M03 A3030 =
2017-01-16 17:53 METAR KUNV 162253Z 23003KT 10SM OVC040 01/M03 A3029 =
2017-01-16 16:53 METAR KUNV 162153Z 23003KT 10SM SCT046 SCT055 OVC080 01/M03 A3030 =
2017-01-16 15:53 METAR KUNV 162053Z 00000KT 10SM OVC090 01/M04 A3030 =
2017-01-16 14:53 METAR KUNV 161953Z 00000KT 10SM BKN090 OVC120 02/M04 A3030 =
2017-01-16 13:53 METAR KUNV 161853Z 00000KT 10SM OVC100 01/M04 A3031 =
2017-01-16 12:53 METAR KUNV 161753Z 00000KT 10SM SCT012 00/M04 A3033 =
2017-01-16 11:53 METAR KUNV 161653Z 00000KT 10SM BKN014 M01/M04 A3036 =
2017-01-16 11:22 METAR KUNV 161622Z COR 00000KT 10SM BKN014 M02/M05 A3038 =
2017-01-16 10:53 METAR KUNV 161553Z 00000KT 10SM SKC M03/M05 A3040 =
2017-01-16 09:53 METAR KUNV 161453Z 00000KT 10SM SKC M06/M07 A3040 =
2017-01-16 08:53 METAR KUNV 161353Z 00000KT 10SM SKC M07/M08 A3039 =
2017-01-16 07:53 METAR KUNV 161253Z 00000KT 10SM SKC M09/M09 A3038 =
2017-01-16 06:53 METAR KUNV 161153Z 00000KT 10SM SKC M08/M09 A3039 =
2017-01-16 05:53 METAR KUNV 161053Z 00000KT 10SM SKC M08/M09 A3039 =
2017-01-16 05:35 METAR KUNV 161035Z AUTO 00000KT 10SM CLR M08/M09 A3038 RMK AO2 T10831091 =
2017-01-16 05:15 METAR KUNV 161015Z AUTO 00000KT 10SM CLR M08/M09 A3038 RMK AO2 T10811090 =
2017-01-16 04:55 METAR KUNV 160955Z AUTO 00000KT 10SM CLR M07/M08 A3037 RMK AO2 T10701080 =
2017-01-16 04:35 METAR KUNV 160935Z AUTO 00000KT 10SM CLR M07/M08 A3037 RMK AO2 T10691079 =
2017-01-16 04:15 METAR KUNV 160915Z AUTO 00000KT 10SM CLR M07/M08 A3037 RMK AO2 T10711081 =
2017-01-16 03:55 METAR KUNV 160855Z AUTO 00000KT 10SM CLR M08/M08 A3037 RMK AO2 T10761085 =

Support USWX by starting your Amazon purchase here.